createdAt,value
2019-01-31T00:00:41.991Z,0.77
2019-01-31T00:03:54.855Z,0.74
2019-01-31T00:07:04.510Z,0.73
2019-01-31T00:10:23.371Z,0.72
2019-01-31T00:13:22.386Z,0.72
2019-01-31T00:16:43.534Z,0.69
2019-01-31T00:19:42.587Z,0.65
2019-01-31T00:22:57.238Z,0.61
2019-01-31T00:26:25.896Z,0.56
2019-01-31T00:29:35.619Z,0.51
2019-01-31T00:32:45.373Z,0.46
2019-01-31T00:36:01.418Z,0.40
2019-01-31T00:39:21.843Z,0.35
2019-01-31T00:42:33.209Z,0.34
2019-01-31T00:45:38.354Z,0.34
2019-01-31T00:48:59.827Z,0.33
2019-01-31T00:52:19.525Z,0.31
2019-01-31T00:55:16.541Z,0.29
2019-01-31T00:58:11.756Z,0.25
2019-01-31T01:01:22.937Z,0.18
2019-01-31T01:04:58.880Z,0.09
2019-01-31T01:08:15.884Z,0.02
2019-01-31T01:12:04.465Z,-0.07
2019-01-31T01:15:31.124Z,-0.12
2019-01-31T01:18:40.676Z,-0.15
2019-01-31T01:21:55.579Z,-0.16
2019-01-31T01:25:36.533Z,-0.15
2019-01-31T01:28:48.674Z,-0.21
2019-01-31T01:32:01.044Z,-0.29
2019-01-31T01:35:01.334Z,-0.39
2019-01-31T01:38:27.237Z,-0.50
2019-01-31T01:41:37.356Z,-0.62
2019-01-31T01:45:04.294Z,-0.76
2019-01-31T01:47:58.483Z,-0.79
2019-01-31T01:51:28.096Z,-0.85
2019-01-31T01:54:27.552Z,-0.97
2019-01-31T01:58:06.283Z,-1.06
2019-01-31T02:01:46.438Z,-1.09
2019-01-31T02:05:08.468Z,-1.14
2019-01-31T02:08:40.957Z,-1.20
2019-01-31T02:11:39.127Z,-1.37
2019-01-31T02:14:54.308Z,-1.47
2019-01-31T02:18:12.845Z,-1.53
2019-01-31T02:21:37.220Z,-1.64
2019-01-31T02:24:40.288Z,-1.79
2019-01-31T02:28:06.231Z,-1.87
2019-01-31T02:31:43.015Z,-1.81
2019-01-31T02:35:18.931Z,-1.56
2019-01-31T02:38:56.416Z,-1.44
2019-01-31T02:42:12.683Z,-1.45
2019-01-31T02:45:23.844Z,-1.42
2019-01-31T02:48:36.812Z,-1.44
2019-01-31T02:52:06.025Z,-1.41
2019-01-31T02:54:56.424Z,-1.42
2019-01-31T02:58:23.010Z,-1.47
2019-01-31T03:01:36.735Z,-1.47
2019-01-31T03:04:40.016Z,-1.52
2019-01-31T03:07:57.926Z,-1.52
2019-01-31T03:11:06.236Z,-1.55
2019-01-31T03:14:09.456Z,-1.62
2019-01-31T03:17:34.953Z,-1.58
2019-01-31T03:20:57.838Z,-1.57
2019-01-31T03:24:28.698Z,-1.56
2019-01-31T03:28:10.090Z,-1.63
2019-01-31T03:31:32.690Z,-1.81
2019-01-31T03:34:38.773Z,-2.03
2019-01-31T03:37:35.556Z,-2.26
2019-01-31T03:40:44.481Z,-2.43
2019-01-31T03:43:45.879Z,-2.50
2019-01-31T03:46:48.393Z,-2.68
2019-01-31T03:49:57.131Z,-2.85
2019-01-31T03:53:23.979Z,-3.05
2019-01-31T03:56:39.534Z,-3.29
2019-01-31T03:59:27.696Z,-3.33
2019-01-31T04:02:51.487Z,-3.37
2019-01-31T04:05:52.683Z,-3.42
2019-01-31T04:08:25.467Z,-3.43
2019-01-31T04:10:59.807Z,-3.32
2019-01-31T04:13:34.103Z,-3.17
2019-01-31T04:16:08.488Z,-3.19
2019-01-31T04:18:41.244Z,-3.27
2019-01-31T04:21:14.863Z,-3.22
2019-01-31T04:23:47.834Z,-3.11
2019-01-31T04:26:20.623Z,-3.04
2019-01-31T04:28:55.433Z,-2.97
2019-01-31T04:31:28.195Z,-2.93
2019-01-31T04:34:00.914Z,-2.89
2019-01-31T04:36:36.159Z,-2.91
2019-01-31T04:39:10.046Z,-2.98
2019-01-31T04:41:42.728Z,-2.99
2019-01-31T04:44:15.755Z,-3.09
2019-01-31T04:46:48.674Z,-3.17
2019-01-31T04:49:21.308Z,-3.23
2019-01-31T04:51:54.651Z,-3.30
2019-01-31T04:54:27.468Z,-3.34
2019-01-31T04:57:00.285Z,-3.33
2019-01-31T04:59:33.406Z,-3.21
2019-01-31T05:02:06.317Z,-3.17
2019-01-31T05:04:38.976Z,-3.14
2019-01-31T05:07:12.404Z,-3.00
2019-01-31T05:09:46.421Z,-2.90
2019-01-31T05:12:19.424Z,-2.83
2019-01-31T05:14:52.444Z,-2.71
2019-01-31T05:17:25.194Z,-2.61
2019-01-31T05:19:58.739Z,-2.56
2019-01-31T05:22:32.248Z,-2.62
2019-01-31T05:25:06.424Z,-2.66
2019-01-31T05:27:39.435Z,-2.77
2019-01-31T05:30:15.774Z,-2.89
2019-01-31T05:32:48.657Z,-2.86
2019-01-31T05:35:22.164Z,-2.90
2019-01-31T05:37:55.401Z,-2.94
2019-01-31T05:40:28.196Z,-2.98
2019-01-31T05:43:01.009Z,-3.00
2019-01-31T05:45:34.173Z,-3.04
2019-01-31T05:48:06.971Z,-2.87
2019-01-31T05:50:39.741Z,-2.82
2019-01-31T05:53:16.175Z,-2.74
2019-01-31T05:55:48.929Z,-2.70
2019-01-31T05:58:21.797Z,-2.74
2019-01-31T06:00:54.948Z,-2.79
2019-01-31T06:03:28.960Z,-2.85
2019-01-31T06:06:01.823Z,-2.85
2019-01-31T06:08:35.931Z,-2.82
2019-01-31T06:11:08.940Z,-2.75
2019-01-31T06:13:44.139Z,-2.68
2019-01-31T06:16:18.257Z,-2.61
2019-01-31T06:18:52.064Z,-2.55
2019-01-31T06:21:24.800Z,-2.54
2019-01-31T06:23:57.953Z,-2.54
2019-01-31T06:26:31.396Z,-2.57
2019-01-31T06:29:05.275Z,-2.62
2019-01-31T06:31:37.998Z,-2.62
2019-01-31T06:34:10.689Z,-2.71
2019-01-31T06:36:44.302Z,-2.77
2019-01-31T06:39:20.090Z,-2.80
2019-01-31T06:41:53.011Z,-2.75
2019-01-31T06:44:26.897Z,-2.70
2019-01-31T06:47:00.879Z,-2.68
2019-01-31T06:49:33.541Z,-2.61
2019-01-31T06:52:08.771Z,-2.62
2019-01-31T06:54:42.781Z,-2.69
2019-01-31T06:57:16.275Z,-2.75
2019-01-31T06:59:51.770Z,-2.78
2019-01-31T07:02:25.824Z,-2.79
2019-01-31T07:04:59.293Z,-2.51
2019-01-31T07:07:32.664Z,-2.38
2019-01-31T07:10:15.916Z,-2.32
2019-01-31T07:12:48.891Z,-2.33
2019-01-31T07:15:23.839Z,-2.38
2019-01-31T07:17:57.169Z,-2.42
2019-01-31T07:20:30.192Z,-2.43
2019-01-31T07:23:05.090Z,-2.41
2019-01-31T07:25:37.979Z,-2.34
2019-01-31T07:28:18.220Z,-2.25
2019-01-31T07:30:52.025Z,-2.09
2019-01-31T07:33:25.853Z,-2.00
2019-01-31T07:35:58.746Z,-1.95
2019-01-31T07:38:31.883Z,-1.82
2019-01-31T07:41:04.719Z,-1.78
2019-01-31T07:43:38.600Z,-1.73
2019-01-31T07:46:12.840Z,-1.72
2019-01-31T07:48:46.402Z,-1.65
2019-01-31T07:51:19.174Z,-1.56
2019-01-31T07:53:52.281Z,-1.47
2019-01-31T07:56:25.176Z,-1.41
2019-01-31T07:58:57.919Z,-1.38
2019-01-31T08:01:33.644Z,-1.33
2019-01-31T08:04:06.847Z,-1.27
2019-01-31T08:06:39.586Z,-1.22
2019-01-31T08:09:12.984Z,-1.14
2019-01-31T08:11:52.297Z,-1.10
2019-01-31T08:14:26.997Z,-1.03
2019-01-31T08:17:02.176Z,-0.97
2019-01-31T08:19:35.620Z,-0.92
2019-01-31T08:22:09.151Z,-0.88
2019-01-31T08:24:42.376Z,-0.82
2019-01-31T08:27:16.208Z,-0.84
2019-01-31T08:29:50.299Z,-0.84
2019-01-31T08:32:23.828Z,-0.77
2019-01-31T08:34:57.461Z,-0.69
2019-01-31T08:37:30.491Z,-0.60
2019-01-31T08:40:03.710Z,-0.50
2019-01-31T08:42:40.334Z,-0.40
2019-01-31T08:45:20.615Z,-0.29
2019-01-31T08:47:54.347Z,-0.20
2019-01-31T08:50:31.201Z,-0.11
2019-01-31T08:53:04.981Z,0.02
2019-01-31T08:55:38.938Z,0.13
2019-01-31T08:58:13.673Z,0.27
2019-01-31T09:00:46.597Z,0.37
2019-01-31T09:03:22.466Z,0.47
2019-01-31T09:05:55.881Z,0.55
2019-01-31T09:08:51.147Z,0.65
2019-01-31T09:11:23.983Z,0.70
2019-01-31T09:13:57.325Z,0.75
2019-01-31T09:16:30.964Z,0.80
2019-01-31T09:19:04.846Z,0.83
2019-01-31T09:22:07.787Z,0.87
2019-01-31T09:25:44.375Z,0.92
2019-01-31T09:29:13.162Z,0.97
2019-01-31T09:32:45.320Z,1.07
2019-01-31T09:36:02.456Z,1.13
2019-01-31T09:39:18.605Z,1.18
2019-01-31T09:42:41.836Z,1.23
2019-01-31T09:45:46.457Z,1.29
2019-01-31T09:48:54.772Z,1.37
2019-01-31T09:52:32.240Z,1.42
2019-01-31T09:56:28.351Z,1.51
2019-01-31T09:59:55.006Z,1.63
2019-01-31T10:03:21.209Z,1.72
2019-01-31T10:06:31.670Z,1.71
2019-01-31T10:09:59.204Z,1.70
2019-01-31T10:13:40.047Z,1.74
2019-01-31T10:16:51.351Z,1.72
2019-01-31T10:20:01.556Z,1.68
2019-01-31T10:23:33.177Z,1.65
2019-01-31T10:26:44.383Z,1.59
2019-01-31T10:29:48.531Z,1.54
2019-01-31T10:33:08.321Z,1.61
2019-01-31T10:36:58.991Z,1.81
2019-01-31T10:40:23.792Z,2.00
2019-01-31T10:43:33.711Z,2.10
2019-01-31T10:46:40.691Z,2.10
2019-01-31T10:49:45.566Z,2.11
2019-01-31T10:53:06.916Z,2.19
2019-01-31T10:56:20.038Z,2.42
2019-01-31T10:59:50.550Z,2.69
2019-01-31T11:03:15.465Z,3.09
2019-01-31T11:06:45.482Z,3.41
2019-01-31T11:10:00.968Z,3.59
2019-01-31T11:13:32.955Z,3.58
2019-01-31T11:17:12.654Z,3.52
2019-01-31T11:20:49.252Z,3.26
2019-01-31T11:24:19.884Z,2.77
2019-01-31T11:27:46.915Z,2.43
2019-01-31T11:30:59.919Z,2.24
2019-01-31T11:34:32.799Z,2.28
2019-01-31T11:38:15.245Z,2.36
2019-01-31T11:41:45.172Z,2.60
2019-01-31T11:45:22.625Z,2.83
2019-01-31T11:49:06.660Z,3.20
2019-01-31T11:52:35.536Z,3.71
2019-01-31T11:55:38.846Z,4.04
2019-01-31T11:59:06.582Z,4.45
2019-01-31T12:01:42.922Z,4.84
2019-01-31T12:04:20.384Z,4.94
2019-01-31T12:06:58.088Z,4.89
2019-01-31T12:09:32.156Z,4.87
2019-01-31T12:12:09.300Z,4.90
2019-01-31T12:14:42.005Z,4.82
2019-01-31T12:17:14.845Z,4.62
2019-01-31T12:19:47.625Z,4.48
2019-01-31T12:22:20.435Z,4.48
2019-01-31T12:24:55.028Z,4.67
2019-01-31T12:27:27.956Z,4.64
2019-01-31T12:30:00.775Z,4.64
2019-01-31T12:32:37.741Z,4.61
2019-01-31T12:35:12.816Z,4.46
2019-01-31T12:37:49.187Z,4.14
2019-01-31T12:40:22.282Z,4.09
2019-01-31T12:42:56.375Z,3.96
2019-01-31T12:45:29.483Z,3.82
2019-01-31T12:48:06.503Z,3.71
2019-01-31T12:50:43.257Z,3.53
2019-01-31T12:53:24.920Z,3.46
2019-01-31T12:55:57.642Z,3.32
2019-01-31T12:58:33.840Z,3.18
2019-01-31T13:01:10.992Z,3.01
2019-01-31T13:03:45.380Z,2.81
2019-01-31T13:06:18.300Z,2.74
2019-01-31T13:08:51.257Z,2.59
2019-01-31T13:11:24.610Z,2.41
2019-01-31T13:14:01.433Z,2.23
2019-01-31T13:16:34.428Z,2.07
2019-01-31T13:19:11.690Z,1.98
2019-01-31T13:21:48.534Z,1.89
2019-01-31T13:24:21.483Z,1.82
2019-01-31T13:26:56.055Z,1.80
2019-01-31T13:29:30.534Z,1.80
2019-01-31T13:32:05.172Z,1.88
2019-01-31T13:34:41.202Z,1.98
2019-01-31T13:37:13.936Z,2.20
2019-01-31T13:39:47.759Z,2.28
2019-01-31T13:42:21.548Z,2.27
2019-01-31T13:44:57.103Z,2.23
2019-01-31T13:47:30.048Z,2.29
2019-01-31T13:50:05.108Z,2.42
2019-01-31T13:52:40.924Z,2.52
2019-01-31T13:55:23.205Z,2.55
2019-01-31T13:58:01.867Z,2.54
2019-01-31T14:00:40.170Z,2.47
2019-01-31T14:03:13.013Z,2.38
2019-01-31T14:05:48.618Z,2.19
2019-01-31T14:08:22.784Z,2.03
2019-01-31T14:10:59.449Z,1.93
2019-01-31T14:13:35.343Z,1.82
2019-01-31T14:16:22.572Z,1.75
2019-01-31T14:19:11.410Z,1.72
2019-01-31T14:21:48.840Z,1.74
2019-01-31T14:24:23.693Z,1.80
2019-01-31T14:26:58.031Z,1.80
2019-01-31T14:29:33.347Z,1.76
2019-01-31T14:32:15.346Z,1.73
2019-01-31T14:34:49.204Z,1.67
2019-01-31T14:37:24.410Z,1.68
2019-01-31T14:40:00.612Z,1.65
2019-01-31T14:42:34.289Z,1.69
2019-01-31T14:45:08.343Z,1.72
2019-01-31T14:47:45.525Z,1.76
2019-01-31T14:50:27.501Z,1.78
2019-01-31T14:53:02.713Z,1.87
2019-01-31T14:55:36.402Z,1.89
2019-01-31T14:58:12.049Z,1.85
2019-01-31T15:00:47.931Z,1.86
2019-01-31T15:03:25.440Z,1.83
2019-01-31T15:05:59.367Z,1.79
2019-01-31T15:08:33.362Z,1.76
2019-01-31T15:11:06.342Z,1.71
2019-01-31T15:13:40.027Z,1.67
2019-01-31T15:16:13.585Z,1.71
2019-01-31T15:18:50.233Z,1.73
2019-01-31T15:21:25.312Z,1.73
2019-01-31T15:23:59.774Z,1.71
2019-01-31T15:26:34.523Z,1.71
2019-01-31T15:29:07.688Z,1.66
2019-01-31T15:31:42.785Z,1.62
2019-01-31T15:34:16.297Z,1.57
2019-01-31T15:36:50.399Z,1.53
2019-01-31T15:39:24.228Z,1.48
2019-01-31T15:41:59.326Z,1.47
2019-01-31T15:44:42.784Z,1.42
2019-01-31T15:47:17.489Z,1.37
2019-01-31T15:49:53.709Z,1.37
2019-01-31T15:52:27.184Z,1.30
2019-01-31T15:55:02.612Z,1.20
2019-01-31T15:57:39.519Z,1.03
2019-01-31T16:00:29.203Z,0.75
2019-01-31T16:03:05.090Z,0.41
2019-01-31T16:05:41.206Z,0.12
2019-01-31T16:08:14.312Z,-0.16
2019-01-31T16:10:48.706Z,-0.38
2019-01-31T16:13:24.358Z,-0.61
2019-01-31T16:15:59.712Z,-0.80
2019-01-31T16:18:32.500Z,-0.86
2019-01-31T16:21:08.255Z,-1.04
2019-01-31T16:23:42.758Z,-1.23
2019-01-31T16:26:18.460Z,-1.37
2019-01-31T16:28:54.741Z,-1.51
2019-01-31T16:31:36.049Z,-1.64
2019-01-31T16:34:09.824Z,-1.75
2019-01-31T16:36:43.689Z,-1.88
2019-01-31T16:39:19.304Z,-1.99
2019-01-31T16:41:54.147Z,-2.19
2019-01-31T16:44:28.841Z,-2.25
2019-01-31T16:47:01.989Z,-2.38
2019-01-31T16:49:35.927Z,-2.32
2019-01-31T16:52:09.606Z,-1.97
2019-01-31T16:54:46.456Z,-1.87
2019-01-31T16:57:33.471Z,-1.96
2019-01-31T17:00:20.285Z,-2.23
2019-01-31T17:03:06.374Z,-2.51
2019-01-31T17:05:40.933Z,-2.76
2019-01-31T17:08:16.239Z,-2.90
2019-01-31T17:10:49.807Z,-3.03
2019-01-31T17:13:28.425Z,-3.03
2019-01-31T17:16:01.636Z,-2.81
2019-01-31T17:18:38.744Z,-2.72
2019-01-31T17:21:13.552Z,-2.79
2019-01-31T17:23:49.515Z,-2.82
2019-01-31T17:26:24.617Z,-2.84
2019-01-31T17:28:59.683Z,-2.91
2019-01-31T17:31:35.603Z,-2.85
2019-01-31T17:34:11.282Z,-2.94
2019-01-31T17:36:46.271Z,-2.98
2019-01-31T17:39:33.225Z,-3.07
2019-01-31T17:42:06.615Z,-3.09
2019-01-31T17:44:40.668Z,-3.17
2019-01-31T17:47:15.616Z,-3.17
2019-01-31T17:49:49.990Z,-3.17
2019-01-31T17:52:27.522Z,-3.23
2019-01-31T17:55:01.198Z,-3.31
2019-01-31T17:57:34.222Z,-3.32
2019-01-31T18:00:24.919Z,-3.34
2019-01-31T18:02:58.969Z,-3.22
2019-01-31T18:05:34.180Z,-3.15
2019-01-31T18:08:09.353Z,-3.09
2019-01-31T18:10:45.859Z,-2.99
2019-01-31T18:13:20.390Z,-3.02
2019-01-31T18:15:53.361Z,-2.95
2019-01-31T18:18:29.908Z,-2.80
2019-01-31T18:21:04.556Z,-2.69
2019-01-31T18:23:42.333Z,-2.71
2019-01-31T18:26:16.285Z,-2.67
2019-01-31T18:28:48.989Z,-2.59
2019-01-31T18:31:23.384Z,-2.56
2019-01-31T18:33:58.289Z,-2.64
2019-01-31T18:36:34.739Z,-2.58
2019-01-31T18:39:11.994Z,-2.52
2019-01-31T18:41:46.378Z,-2.57
2019-01-31T18:44:20.038Z,-2.60
2019-01-31T18:46:55.693Z,-2.61
2019-01-31T18:49:31.003Z,-2.63
2019-01-31T18:52:07.745Z,-2.66
2019-01-31T18:54:41.897Z,-2.64
2019-01-31T18:57:14.726Z,-2.61
2019-01-31T18:59:49.404Z,-2.55
2019-01-31T19:02:24.262Z,-2.52
2019-01-31T19:04:58.058Z,-2.49
2019-01-31T19:07:37.504Z,-2.46
2019-01-31T19:10:15.659Z,-2.38
2019-01-31T19:12:50.934Z,-2.36
2019-01-31T19:15:27.337Z,-2.43
2019-01-31T19:18:05.854Z,-2.51
2019-01-31T19:20:46.372Z,-2.54
2019-01-31T19:24:11.840Z,-2.58
2019-01-31T19:26:50.276Z,-2.49
2019-01-31T19:29:27.210Z,-2.42
2019-01-31T19:32:01.560Z,-2.54
2019-01-31T19:34:38.037Z,-2.62
2019-01-31T19:37:12.934Z,-2.67
2019-01-31T19:39:50.782Z,-2.80
2019-01-31T19:42:24.331Z,-2.79
2019-01-31T19:44:59.531Z,-2.75
2019-01-31T19:47:33.349Z,-2.86
2019-01-31T19:50:08.293Z,-2.84
2019-01-31T19:52:43.077Z,-2.81
2019-01-31T19:55:19.751Z,-2.90
2019-01-31T19:57:54.079Z,-2.98
2019-01-31T20:00:31.152Z,-3.04
2019-01-31T20:03:05.636Z,-3.01
2019-01-31T20:05:40.598Z,-2.96
2019-01-31T20:08:13.863Z,-2.84
2019-01-31T20:10:53.395Z,-2.81
2019-01-31T20:13:28.057Z,-2.81
2019-01-31T20:16:28.543Z,-2.78
2019-01-31T20:19:02.569Z,-2.56
2019-01-31T20:21:39.669Z,-2.52
2019-01-31T20:24:14.503Z,-2.66
2019-01-31T20:26:49.904Z,-2.68
2019-01-31T20:29:26.575Z,-2.71
2019-01-31T20:32:02.246Z,-2.90
2019-01-31T20:34:37.960Z,-3.09
2019-01-31T20:37:12.869Z,-3.18
2019-01-31T20:39:55.612Z,-3.13
2019-01-31T20:42:30.746Z,-2.94
2019-01-31T20:45:10.454Z,-2.87
2019-01-31T20:47:44.616Z,-2.85
2019-01-31T20:50:26.555Z,-2.85
2019-01-31T20:53:01.171Z,-2.68
2019-01-31T20:55:35.372Z,-2.62
2019-01-31T20:58:08.996Z,-2.61
2019-01-31T21:00:46.486Z,-2.60
2019-01-31T21:03:20.670Z,-2.66
2019-01-31T21:05:56.714Z,-2.73
2019-01-31T21:08:29.460Z,-2.78
2019-01-31T21:11:02.510Z,-2.59
2019-01-31T21:13:41.387Z,-2.56
2019-01-31T21:16:22.589Z,-2.59
2019-01-31T21:19:02.526Z,-2.51
2019-01-31T21:21:42.450Z,-2.46
2019-01-31T21:24:17.648Z,-2.31
2019-01-31T21:26:53.751Z,-2.21
2019-01-31T21:29:33.346Z,-2.07
2019-01-31T21:32:09.082Z,-1.96
2019-01-31T21:34:48.605Z,-1.95
2019-01-31T21:37:26.159Z,-1.87
2019-01-31T21:40:05.638Z,-1.83
2019-01-31T21:42:44.418Z,-1.84
2019-01-31T21:45:21.069Z,-1.85
2019-01-31T21:47:54.463Z,-1.84
2019-01-31T21:50:29.003Z,-1.88
2019-01-31T21:53:08.006Z,-1.96
2019-01-31T21:55:45.345Z,-1.98
2019-01-31T21:58:23.472Z,-2.02
2019-01-31T22:01:01.666Z,-2.03
2019-01-31T22:03:36.190Z,-2.09
2019-01-31T22:06:22.587Z,-2.06
2019-01-31T22:09:24.902Z,-1.94
2019-01-31T22:12:03.900Z,-1.99
2019-01-31T22:14:40.848Z,-2.00
2019-01-31T22:17:24.367Z,-1.92
2019-01-31T22:20:11.120Z,-1.85
2019-01-31T22:22:47.676Z,-1.77
2019-01-31T22:25:26.854Z,-1.75
2019-01-31T22:28:00.740Z,-1.69
2019-01-31T22:30:39.480Z,-1.67
2019-01-31T22:33:12.511Z,-1.65
2019-01-31T22:35:45.348Z,-1.61
2019-01-31T22:38:20.549Z,-1.53
2019-01-31T22:40:55.236Z,-1.47
2019-01-31T22:43:28.737Z,-1.40
2019-01-31T22:46:02.529Z,-1.29
2019-01-31T22:48:36.446Z,-1.15
2019-01-31T22:51:09.817Z,-1.09
2019-01-31T22:53:43.851Z,-1.03
2019-01-31T22:56:18.464Z,-0.98
2019-01-31T22:58:51.185Z,-0.90
2019-01-31T23:01:38.861Z,-0.84
2019-01-31T23:04:11.808Z,-0.72
2019-01-31T23:06:45.084Z,-0.69
2019-01-31T23:09:18.401Z,-0.65
2019-01-31T23:11:51.297Z,-0.63
2019-01-31T23:14:24.209Z,-0.61
2019-01-31T23:16:57.509Z,-0.58
2019-01-31T23:19:32.797Z,-0.57
2019-01-31T23:22:07.459Z,-0.50
2019-01-31T23:24:40.743Z,-0.49
2019-01-31T23:27:14.404Z,-0.40
2019-01-31T23:29:48.269Z,-0.32
2019-01-31T23:32:22.408Z,-0.25
2019-01-31T23:35:02.791Z,-0.25
2019-01-31T23:37:36.676Z,-0.22
2019-01-31T23:40:12.005Z,-0.21
2019-01-31T23:42:44.795Z,-0.20
2019-01-31T23:45:38.565Z,-0.14
2019-01-31T23:48:11.389Z,-0.11
2019-01-31T23:50:44.159Z,-0.09
2019-01-31T23:53:18.243Z,-0.06
2019-01-31T23:55:51.754Z,-0.04
2019-01-31T23:58:26.859Z,-0.01
